Latest Weather Observations for Rottnest Island

IDW60801

Issued at 7:32 pm WST Monday 22 December 2014 (issued every 30 minutes, with the page automatically refreshed every 10 minutes)

About weather observations | Map of weather stations | Latest weather observations for WA | Other Formats
Station Details ID: 009193 Name: ROTTNEST ISLAND Lat: -32.01 Lon: 115.50 Height: 43.1 m
Data from the previous 72 hours. | See also: Recent months at Rottnest Island
Date/Time
WST
Temp
°C
App
Temp
°C
Dew
Point
Rel
Hum
%
Delta-T
°C
Wind Press
QNH
hPa
Press
MSL
hPa
Rain
since 9 am
mm
Dir
 
Spd
km/h
Gust
km/h
Spd
kts
Gust
kts
22/07:30pm 19.1 11.8 14.4 74 2.7 S 46 56 25 30 1015.5 1015.3 0.0
22/07:00pm 19.4 12.4 14.2 72 3.0 S 44 56 24 30 1015.4 1015.2 0.0
22/06:30pm 19.9 13.7 14.9 73 2.9 S 41 48 22 26 1015.3 1015.1 0.0
22/06:00pm 20.6 14.5 15.2 71 3.2 S 41 52 22 28 1015.2 1015.0 0.0
22/05:30pm 20.4 13.7 14.5 69 3.4 S 43 54 23 29 1014.9 1014.7 0.0
22/05:00pm 21.6 15.1 15.2 67 3.8 SSW 43 54 23 29 1014.9 1014.7 0.0
22/04:30pm 21.6 14.8 14.7 65 4.1 SSW 44 54 24 29 1014.9 1014.7 0.0
22/04:00pm 22.0 15.5 15.1 65 4.1 SSW 43 50 23 27 1014.9 1014.7 0.0
22/03:30pm 22.3 15.9 14.2 60 4.7 SSW 41 50 22 27 1015.1 1014.9 0.0
22/03:00pm 21.6 15.3 14.7 65 4.1 SSW 41 50 22 27 1015.1 1014.9 0.0
22/02:30pm 22.1 16.0 15.2 65 4.1 SSW 41 48 22 26 1015.6 1015.4 0.0
22/02:00pm 21.9 16.6 15.3 66 3.9 S 37 44 20 24 1015.6 1015.4 0.0
22/01:30pm 22.1 16.8 15.2 65 4.1 SSW 37 43 20 23 1016.0 1015.8 0.0
22/01:00pm 22.0 17.1 15.4 66 3.9 S 35 43 19 23 1016.2 1016.0 0.0
22/12:30pm 22.1 16.8 15.2 65 4.1 S 37 43 20 23 1016.4 1016.2 0.0
22/12:00pm 22.0 17.4 15.1 65 4.1 S 33 41 18 22 1016.7 1016.5 0.0
22/11:30am 21.2 16.4 14.1 64 4.1 S 32 39 17 21 1016.9 1016.7 0.0
22/11:00am 20.7 15.9 14.1 66 3.8 S 32 35 17 19 1017.2 1017.0 0.0
22/10:30am 20.5 16.2 13.2 63 4.2 S 28 35 15 19 1017.3 1017.1 0.0
22/10:00am 20.2 16.0 13.4 65 3.9 S 28 32 15 17 1017.5 1017.3 0.0
22/09:30am 20.0 16.2 13.5 66 3.7 SSE 26 32 14 17 1017.5 1017.3 0.0
22/09:00am 19.7 16.6 13.4 67 3.6 SSE 22 28 12 15 1017.5 1017.3 0.0
22/08:30am 19.2 15.9 12.7 66 3.7 SE 22 28 12 15 1017.5 1017.3 0.0
22/08:00am 19.3 16.5 13.2 68 3.5 SE 20 26 11 14 1017.5 1017.3 0.0
22/07:30am 19.2 16.5 13.6 70 3.2 SSE 20 26 11 14 1017.4 1017.2 0.0
22/07:00am 19.0 17.5 13.0 68 3.4 SE 13 20 7 11 1017.2 1017.0 0.0
22/06:30am 18.6 17.0 12.8 69 3.3 ESE 13 17 7 9 1016.9 1016.7 0.0
22/06:00am 18.3 17.2 13.2 72 2.9 ESE 11 17 6 9 1016.7 1016.5 0.0
22/05:30am 17.5 15.5 12.6 73 2.7 ESE 15 19 8 10 1016.5 1016.3 0.0
22/05:00am 17.4 15.3 12.5 73 2.7 ESE 15 20 8 11 1016.1 1015.9 0.0
22/04:30am 17.8 15.3 12.3 70 3.0 E 17 22 9 12 1015.8 1015.6 0.0
22/04:00am 18.0 15.6 12.5 70 3.1 E 17 24 9 13 1015.5 1015.3 0.0
22/03:30am 18.2 15.7 12.4 69 3.2 E 17 24 9 13 1015.3 1015.1 0.0
22/03:00am 18.4 16.0 12.6 69 3.2 ESE 17 22 9 12 1015.3 1015.1 0.0
22/02:30am 18.9 16.6 12.9 68 3.4 ESE 17 20 9 11 1015.3 1015.1 0.0
22/02:00am 19.3 16.6 12.8 66 3.7 ESE 19 26 10 14 1015.2 1015.0 0.0
22/01:30am 19.5 17.3 13.4 68 3.5 ESE 17 20 9 11 1015.3 1015.1 0.0
22/01:00am 19.4 17.5 14.2 72 3.0 ESE 17 20 9 11 1015.5 1015.3 0.0
22/12:30am 19.7 18.0 16.3 81 2.0 SE 20 26 11 14 1015.7 1015.5 0.0
22/12:00am 19.9 16.5 16.7 82 1.9 SSE 30 35 16 19 1015.8 1015.6 0.0
 
Date/Time
WST
Temp
°C
App
Temp
°C
Dew
Point
Rel
Hum
%
Delta-T
°C
Wind Press
QNH
hPa
Press
MSL
hPa
Rain
since 9 am
mm
Dir
 
Spd
km/h
Gust
km/h
Spd
kts
Gust
kts
21/11:30pm 19.8 15.6 16.3 80 2.1 SSE 33 43 18 23 1015.8 1015.6 0.0
21/11:00pm 20.0 15.0 16.2 79 2.3 S 37 46 20 25 1015.9 1015.7 0.0
21/10:30pm 19.9 13.6 15.7 77 2.5 S 43 54 23 29 1015.8 1015.6 0.0
21/10:00pm 19.9 14.8 15.7 77 2.5 S 37 50 20 27 1015.9 1015.7 0.0
21/09:30pm 20.0 14.1 15.6 76 2.6 S 41 48 22 26 1015.9 1015.7 0.0
21/09:00pm 19.9 14.8 15.7 77 2.5 S 37 48 20 26 1015.6 1015.4 0.0
21/08:30pm 20.0 13.8 15.8 77 2.5 S 43 54 23 29 1015.5 1015.3 0.0
21/08:00pm 19.7 13.7 15.4 76 2.5 S 41 50 22 27 1015.3 1015.1 0.0
21/07:30pm 19.6 12.4 14.8 74 2.8 SSW 46 56 25 30 1014.9 1014.7 0.0
21/07:00pm 19.8 13.1 15.0 74 2.8 SSW 44 56 24 30 1014.6 1014.4 0.0
21/06:30pm 20.1 12.6 15.1 73 2.9 SSW 48 57 26 31 1014.4 1014.2 0.0
21/06:00pm 20.6 13.5 14.9 70 3.4 SSW 46 57 25 31 1014.3 1014.1 0.0
21/05:30pm 21.0 13.5 15.1 69 3.5 SSW 48 61 26 33 1014.2 1014.0 0.0
21/05:00pm 20.9 12.8 14.3 66 3.8 SSW 50 61 27 33 1014.2 1014.0 0.0
21/04:30pm 21.5 14.6 14.6 65 4.1 SSW 44 59 24 32 1014.3 1014.1 0.0
21/04:00pm 21.5 14.6 14.4 64 4.2 SSW 44 57 24 31 1014.8 1014.6 0.0
21/03:30pm 21.9 15.0 14.5 63 4.4 SSW 44 59 24 32 1015.2 1015.0 0.0
21/03:00pm 21.9 15.7 14.8 64 4.2 SSW 41 56 22 30 1015.4 1015.2 0.0
21/02:30pm 22.3 15.7 14.9 63 4.4 SSW 43 52 23 28 1015.5 1015.3 0.0
21/02:00pm 21.4 14.0 14.1 63 4.2 SSW 46 57 25 31 1015.6 1015.4 0.0
21/01:30pm 21.4 13.3 14.3 64 4.2 SSW 50 61 27 33 1016.2 1016.0 0.0
21/01:00pm 22.2 15.5 14.6 62 4.5 SSW 43 54 23 29 1016.5 1016.3 0.0
21/12:30pm 21.1 14.7 14.3 65 4.0 SSW 41 50 22 27 1016.6 1016.4 0.0
21/12:00pm 21.8 15.6 13.9 61 4.6 SSW 39 46 21 25 1016.9 1016.7 0.0
21/11:30am 22.5 16.7 13.8 58 5.1 S 37 44 20 24 1017.1 1016.9 0.0
21/11:00am 21.7 15.9 12.8 57 5.1 S 35 41 19 22 1017.3 1017.1 0.0
21/10:30am 21.9 16.9 12.2 54 5.5 S 30 37 16 20 1017.4 1017.2 0.0
21/10:00am 21.6 16.5 11.9 54 5.4 S 30 35 16 19 1017.5 1017.3 0.0
21/09:30am 20.4 16.1 12.1 59 4.6 SSE 26 30 14 16 1017.7 1017.5 0.0
21/09:00am 21.1 16.0 12.0 56 5.1 SSE 30 35 16 19 1017.7 1017.5 0.0
21/08:30am 19.4 13.3 11.7 61 4.3 SSE 35 46 19 25 1017.6 1017.4 0.0
21/08:00am 18.7 12.1 11.3 62 4.0 SSE 37 50 20 27 1017.6 1017.4 0.0
21/07:30am 18.7 11.8 11.5 63 4.0 SSE 39 54 21 29 1017.5 1017.3 0.0
21/07:00am 18.1 10.9 11.9 67 3.4 SSE 41 50 22 27 1017.3 1017.1 0.0
21/06:30am 17.3 9.9 11.1 67 3.4 SSE 41 56 22 30 1017.0 1016.8 0.0
21/06:00am 17.1 9.2 11.4 69 3.1 SSE 44 54 24 29 1016.7 1016.5 0.0
21/05:43am 17.1 9.8 11.4 69 3.1 SSE 41 59 22 32 1016.3 1016.1 0.0
21/05:30am 17.1 10.5 11.4 69 3.1 SSE 37 48 20 26 1016.4 1016.2 0.0
21/05:00am 17.2 10.6 11.5 69 3.1 SSE 37 52 20 28 1016.0 1015.8 0.0
21/04:30am 17.2 10.5 11.0 67 3.3 SSE 37 52 20 28 1015.6 1015.4 0.0
21/04:00am 17.5 10.4 10.9 65 3.6 SE 39 50 21 27 1015.2 1015.0 0.0
21/03:30am 17.6 10.6 11.2 66 3.5 SSE 39 48 21 26 1015.2 1015.0 0.0
21/03:00am 17.8 10.9 10.4 62 4.0 SSE 37 50 20 27 1015.1 1014.9 0.0
21/02:43am 18.0 12.3 11.3 65 3.6 SE 32 50 17 27 1015.1 1014.9 0.0
21/02:30am 18.0 11.0 11.1 64 3.7 SE 39 48 21 26 1015.0 1014.8 0.0
21/02:00am 18.1 10.6 11.0 63 3.8 SE 41 56 22 30 1015.0 1014.8 0.0
21/01:30am 18.4 11.8 11.2 63 3.9 SE 37 50 20 27 1015.0 1014.8 0.0
21/01:00am 18.9 11.0 11.5 62 4.1 SE 44 56 24 30 1014.9 1014.7 0.0
21/12:30am 19.1 12.0 12.1 64 3.9 SSE 41 57 22 31 1014.9 1014.7 0.0
21/12:00am 19.6 10.1 12.4 63 4.0 SSE 54 63 29 34 1014.4 1014.2 0.0
 
Date/Time
WST
Temp
°C
App
Temp
°C
Dew
Point
Rel
Hum
%
Delta-T
°C
Wind Press
QNH
hPa
Press
MSL
hPa
Rain
since 9 am
mm
Dir
 
Spd
km/h
Gust
km/h
Spd
kts
Gust
kts
20/11:30pm 20.0 10.9 12.5 62 4.2 SSE 52 63 28 34 1014.2 1014.0 0.0
20/11:00pm 20.6 14.7 13.6 64 4.0 SSE 37 46 20 25 1014.4 1014.2 0.0
20/10:30pm 21.2 13.4 11.8 55 5.3 SSE 44 56 24 30 1014.0 1013.8 0.0
20/10:00pm 21.4 13.9 13.8 62 4.4 SSE 46 57 25 31 1013.7 1013.5 0.0
20/09:30pm 21.0 14.2 15.8 72 3.1 S 46 56 25 30 1013.2 1013.0 0.0
20/09:00pm 21.1 13.3 15.2 69 3.5 S 50 61 27 33 1012.4 1012.2 0.0
20/08:30pm 21.3 12.2 14.7 66 3.9 S 56 67 30 36 1011.8 1011.6 0.0
20/08:00pm 21.2 12.1 14.8 67 3.8 S 56 70 30 38 1011.2 1011.0 0.0
20/07:30pm 21.1 12.1 15.0 68 3.6 S 56 67 30 36 1010.7 1010.5 0.0
20/07:00pm 21.3 13.0 14.9 67 3.8 S 52 69 28 37 1010.4 1010.2 0.0
20/06:48pm 21.3 12.6 14.7 66 3.9 S 54 72 29 39 1010.2 1010.0 0.0
20/06:30pm 21.4 12.1 14.6 65 4.0 S 57 70 31 38 1009.9 1009.7 0.0
20/06:04pm 21.4 12.2 15.0 67 3.8 SSW 57 76 31 41 1009.5 1009.3 0.0
20/06:00pm 21.4 11.4 14.8 66 3.9 SSW 61 76 33 41 1009.4 1009.2 0.0
20/05:30pm 21.2 11.3 15.1 68 3.6 SSW 61 74 33 40 1008.9 1008.7 0.0
20/05:00pm 22.2 12.7 15.1 64 4.2 SSW 59 78 32 42 1009.1 1008.9 0.0
20/04:52pm 21.8 12.1 14.7 64 4.2 SSW 59 78 32 42 1008.8 1008.6 0.0
20/04:30pm 22.2 12.7 15.1 64 4.2 SSW 59 74 32 40 1008.8 1008.6 0.0
20/04:18pm 22.3 13.0 14.7 62 4.5 SSW 57 76 31 41 1008.8 1008.6 0.0
20/04:00pm 22.1 13.5 15.0 64 4.2 SSW 54 70 29 38 1008.9 1008.7 0.0
20/03:33pm 22.7 14.6 15.5 64 4.3 SSW 52 70 28 38 1009.1 1008.9 0.0
20/03:30pm 22.1 13.7 15.5 66 3.9 SSW 54 70 29 38 1009.0 1008.8 0.0
20/03:00pm 22.5 14.5 15.6 65 4.1 SSW 52 67 28 36 1009.0 1008.8 0.0
20/02:30pm 22.2 14.8 15.3 65 4.1 SSW 48 61 26 33 1009.3 1009.1 0.0
20/02:00pm 22.0 14.6 16.3 70 3.5 SSW 50 61 27 33 1009.7 1009.5 0.0
20/01:30pm 22.3 15.4 16.6 70 3.5 SW 48 61 26 33 1009.8 1009.6 0.0
20/01:00pm 22.9 16.9 16.9 69 3.7 SSW 44 56 24 30 1009.8 1009.6 0.0
20/12:30pm 22.2 16.2 16.9 72 3.2 SSW 44 56 24 30 1009.9 1009.7 0.0
20/12:00pm 22.4 15.7 16.0 67 3.9 SSW 46 59 25 32 1009.7 1009.5 0.0
20/11:30am 23.3 16.4 16.6 66 4.1 SSW 48 61 26 33 1009.7 1009.5 0.0
20/11:00am 21.9 15.9 16.4 71 3.3 SSW 43 57 23 31 1009.7 1009.5 0.0
20/10:30am 21.9 14.9 16.4 71 3.3 SSW 48 59 26 32 1009.5 1009.3 0.0
20/10:00am 21.2 13.5 16.4 74 2.9 SSW 52 65 28 35 1009.2 1009.0 0.0
20/09:30am 20.6 13.6 16.2 76 2.6 SSW 48 65 26 35 1008.8 1008.6 0.0
20/09:00am 21.2 14.4 16.8 76 2.7 SSW 48 59 26 32 1008.7 1008.5 0.0
20/08:30am 21.1 14.3 16.9 77 2.6 SSW 48 59 26 32 1008.5 1008.3 0.0
20/08:00am 20.7 14.9 16.9 79 2.3 SSW 43 59 23 32 1008.4 1008.2 0.0
20/07:30am 20.5 14.4 16.7 79 2.3 SSW 44 56 24 30 1008.2 1008.0 0.0
20/07:00am 20.0 13.5 16.6 81 2.1 SSW 46 59 25 32 1007.7 1007.6 0.0
20/06:30am 20.0 14.0 17.0 83 1.8 SSW 44 56 24 30 1007.5 1007.4 0.0
20/06:10am 19.7 13.9 16.9 84 1.7 SSW 43 61 23 33 1007.2 1007.1 0.0
20/06:00am 19.8 14.1 17.2 85 1.6 SSW 43 56 23 30 1007.1 1007.0 0.0
20/05:30am 19.6 15.0 17.0 85 1.6 SSW 37 50 20 27 1006.8 1006.7 0.0
20/05:00am 19.8 15.2 17.2 85 1.6 SSW 37 50 20 27 1006.5 1006.4 0.0
20/04:30am 20.0 16.9 17.6 86 1.5 SSW 30 39 16 21 1006.1 1006.0 0.0
20/04:00am 20.1 17.1 17.7 86 1.5 SSW 30 35 16 19 1005.9 1005.8 0.0
20/03:30am 20.1 17.4 17.5 85 1.6 SSW 28 35 15 19 1005.8 1005.7 0.0
20/03:00am 20.2 17.5 17.6 85 1.6 SSW 28 35 15 19 1005.9 1005.8 0.0
20/02:30am 20.4 17.4 17.8 85 1.6 S 30 35 16 19 1005.7 1005.6 0.0
20/02:00am 20.4 17.4 17.8 85 1.6 S 30 37 16 20 1005.9 1005.8 0.0
20/01:30am 20.5 17.5 17.7 84 1.7 S 30 35 16 19 1006.2 1006.1 0.0
20/01:00am 20.4 17.0 17.8 85 1.6 S 32 41 17 22 1006.5 1006.4 0.0
20/12:30am 20.3 16.8 17.5 84 1.7 S 32 44 17 24 1006.9 1006.8 0.0
20/12:10am 20.3 17.5 17.3 83 1.8 S 28 46 15 25 1006.8 1006.7 0.0
20/12:00am 20.3 15.9 17.5 84 1.7 S 37 46 20 25 1007.3 1007.2 0.0
 
Date/Time
WST
Temp
°C
App
Temp
°C
Dew
Point
Rel
Hum
%
Delta-T
°C
Wind Press
QNH
hPa
Press
MSL
hPa
Rain
since 9 am
mm
Dir
 
Spd
km/h
Gust
km/h
Spd
kts
Gust
kts
19/11:30pm 20.5 16.4 17.3 82 2.0 S 35 44 19 24 1007.6 1007.5 0.0
19/11:00pm 20.9 15.5 17.1 79 2.3 S 41 54 22 29 1007.7 1007.6 0.0
19/10:30pm 21.2 15.2 16.8 76 2.7 S 44 54 24 29 1008.1 1007.9 0.0
19/10:00pm 21.4 14.7 17.0 76 2.7 SSW 48 59 26 32 1007.6 1007.5 0.0
19/09:30pm 21.7 15.0 17.1 75 2.8 SSW 48 57 26 31 1007.5 1007.4 0.0
19/09:00pm 21.8 15.2 17.2 75 2.8 SSW 48 59 26 32 1007.5 1007.4 0.0
19/08:30pm 21.8 15.5 17.2 75 2.8 SSW 46 57 25 31 1007.2 1007.1 0.0
19/08:00pm 21.9 15.8 17.5 76 2.7 SSW 46 57 25 31 1006.9 1006.8 0.0

Other Formats:

Comma delimited format used in spreadsheet applications
http://www.bom.gov.au/fwo/IDW60801/IDW60801.94602.axf

JavaScript Object Notation format (JSON) in row-major order
http://www.bom.gov.au/fwo/IDW60801/IDW60801.94602.json